Time;durP1;ratioP1;P1;durP2;ratioP2;P2;SDS_P1;SDS_P2;PMS_P1;PMS_P2;Temp;Humidity;BMP_temperature;BMP_pressure;BME280_temperature;BME280_humidity;BME280_pressure;Samples;Min_cycle;Max_cycle;Signal;HPM_P1;HPM_P2
2023/10/03 00:00:52;;;;;;;27.67;12.90;;;;;;;-145.50;100.00;65435.88;5052342;28;20622;-73
2023/10/03 00:03:19;;;;;;;24.90;11.07;;;;;;;-145.50;100.00;65435.88;5040481;28;20424;-72
2023/10/03 00:05:48;;;;;;;26.13;12.07;;;;;;;-145.50;100.00;65435.88;5042288;28;20076;-73
2023/10/03 00:08:15;;;;;;;26.08;11.75;;;;;;;-145.50;100.00;65435.88;5033330;28;20041;-72
2023/10/03 00:10:41;;;;;;;28.52;13.35;;;;;;;18.91;100.00;100988.81;5049615;28;20063;-72
2023/10/03 00:13:09;;;;;;;28.90;12.57;;;;;;;18.95;100.00;100987.41;5040092;28;20048;-73
2023/10/03 00:15:39;;;;;;;33.35;13.80;;;;;;;18.92;100.00;100985.97;5043188;28;20103;-72
2023/10/03 00:18:06;;;;;;;28.25;12.57;;;;;;;18.98;100.00;100971.06;5048841;28;20060;-72
2023/10/03 00:20:32;;;;;;;33.53;13.18;;;;;;;18.93;100.00;100969.03;5039440;28;20056;-73
2023/10/03 00:22:59;;;;;;;31.63;13.68;;;;;;;18.95;100.00;100960.84;5060096;28;20505;-72
2023/10/03 00:25:26;;;;;;;32.35;13.52;;;;;;;18.96;100.00;100957.16;5048999;28;20303;-72
2023/10/03 00:27:55;;;;;;;29.10;12.87;;;;;;;18.98;100.00;100944.50;5049797;28;20453;-72
2023/10/03 00:30:26;;;;;;;28.95;11.77;;;;;;;19.03;100.00;100942.03;5050801;28;20467;-74
2023/10/03 00:32:53;;;;;;;31.27;13.30;;;;;;;19.07;100.00;100937.16;5050882;28;20567;-74
2023/10/03 00:35:21;;;;;;;36.20;13.85;;;;;;;19.09;100.00;100946.59;5052981;28;20536;-72
2023/10/03 00:37:51;;;;;;;29.50;13.30;;;;;;;19.06;100.00;100941.66;5038530;28;20045;-71
2023/10/03 00:42:57;;;;;;;33.72;13.95;;;;;;;19.06;100.00;100941.66;5041951;28;20379;-74
2023/10/03 00:45:26;;;;;;;30.67;13.07;;;;;;;19.04;100.00;100937.56;5054470;28;20048;-74
2023/10/03 00:47:54;;;;;;;32.60;14.23;;;;;;;19.04;100.00;100917.13;5047747;28;20839;-74
2023/10/03 00:50:26;;;;;;;35.00;14.25;;;;;;;19.00;100.00;100926.50;5046863;28;20045;-73
2023/10/03 00:53:00;;;;;;;31.10;14.10;;;;;;;19.00;100.00;100913.22;5053405;28;20497;-71
2023/10/03 00:55:29;;;;;;;33.33;14.30;;;;;;;18.98;100.00;100909.13;5043373;28;20059;-73
2023/10/03 00:58:41;;;;;;;37.08;14.77;;;;;;;18.96;100.00;100901.34;5051518;28;20045;-73
2023/10/03 01:00:49;;;;;;;30.65;14.05;;;;;;;18.98;100.00;100899.31;5028080;28;20057;-71
2023/10/03 01:03:38;;;;;;;33.58;14.00;;;;;;;18.97;100.00;100889.69;5043494;28;20428;-71
2023/10/03 01:06:10;;;;;;;32.45;14.45;;;;;;;18.98;100.00;100875.38;5036925;28;20549;-72
2023/10/03 01:08:42;;;;;;;32.60;14.15;;;;;;;18.95;100.00;100871.31;5045831;28;20048;-74
2023/10/03 01:11:29;;;;;;;30.85;13.15;;;;;;;18.96;100.00;100864.94;5040244;28;20140;-71
2023/10/03 01:14:00;;;;;;;33.20;13.52;;;;;;;18.95;100.00;100857.16;5052689;28;20114;-72
2023/10/03 01:16:34;;;;;;;34.90;14.20;;;;;;;18.99;100.00;100852.28;5041248;28;20540;-72
2023/10/03 01:19:14;;;;;;;34.60;13.95;;;;;;;18.96;100.00;100838.38;5039630;28;20423;-71
2023/10/03 01:21:41;;;;;;;33.92;15.10;;;;;;;18.96;100.00;100846.34;5051758;28;20044;-72
2023/10/03 01:24:11;;;;;;;34.85;13.45;;;;;;;18.99;100.00;100841.66;5049503;28;20056;-72
2023/10/03 01:26:37;;;;;;;30.42;13.70;;;;;;;18.95;100.00;100830.59;5051633;28;20044;-72
2023/10/03 01:29:04;;;;;;;32.38;13.60;;;;;;;18.94;100.00;100823.66;5049932;28;20052;-71
2023/10/03 01:31:31;;;;;;;31.83;13.40;;;;;;;18.93;100.00;100817.53;5045389;28;20056;-72
2023/10/03 01:33:57;;;;;;;33.05;14.57;;;;;;;18.86;100.00;100815.88;5040238;28;20072;-74
2023/10/03 01:36:26;;;;;;;31.00;14.15;;;;;;;18.90;100.00;100809.94;5047159;28;20394;-74
2023/10/03 01:38:53;;;;;;;36.10;15.40;;;;;;;18.90;100.00;100794.00;5052664;28;20094;-74
2023/10/03 01:41:20;;;;;;;32.72;13.45;;;;;;;18.89;100.00;100795.00;5040530;28;20049;-74
2023/10/03 01:43:47;;;;;;;36.83;14.43;;;;;;;18.87;100.00;100780.28;5049111;28;20099;-74
2023/10/03 01:46:13;;;;;;;35.65;14.55;;;;;;;18.82;100.00;100788.88;5036706;28;20151;-74
2023/10/03 01:48:41;;;;;;;31.40;13.63;;;;;;;18.84;100.00;100778.06;5051516;28;20072;-72
2023/10/03 01:51:09;;;;;;;35.90;14.20;;;;;;;18.85;100.00;100769.84;5052298;28;20139;-72
2023/10/03 01:53:36;;;;;;;31.33;13.63;;;;;;;18.86;100.00;100776.81;5048166;28;20048;-71
2023/10/03 01:56:05;;;;;;;39.47;13.80;;;;;;;18.83;100.00;100774.56;5058458;28;20079;-71
2023/10/03 01:58:34;;;;;;;32.53;13.40;;;;;;;18.84;100.00;100770.09;5038568;28;20071;-71
2023/10/03 02:01:00;;;;;;;34.90;14.32;;;;;;;18.83;100.00;100763.13;5042672;28;20049;-71
2023/10/03 02:03:29;;;;;;;31.45;13.77;;;;;;;18.81;100.00;100765.16;5043703;28;20103;-71
2023/10/03 02:05:56;;;;;;;34.95;13.52;;;;;;;18.76;100.00;100766.56;5055302;28;20456;-72
2023/10/03 02:08:25;;;;;;;33.60;13.48;;;;;;;18.78;100.00;100753.88;5051147;28;20037;-72
2023/10/03 02:10:52;;;;;;;35.13;14.13;;;;;;;18.82;100.00;100741.03;5049157;28;20324;-72
2023/10/03 02:13:21;;;;;;;28.40;12.05;;;;;;;18.88;100.00;100724.28;5048803;28;20045;-71
2023/10/03 02:15:53;;;;;;;31.33;13.75;;;;;;;18.91;100.00;100725.72;5040069;28;20079;-72
2023/10/03 02:18:21;;;;;;;31.13;13.43;;;;;;;18.88;100.00;100734.91;5057338;28;20056;-71
2023/10/03 02:20:52;;;;;;;33.95;14.05;;;;;;;18.87;100.00;100729.78;5046223;28;20144;-72
2023/10/03 02:23:25;;;;;;;35.97;14.25;;;;;;;18.86;100.00;100731.66;5047112;28;20513;-72
2023/10/03 02:25:54;;;;;;;35.95;14.95;;;;;;;18.83;100.00;100732.03;5052148;28;20056;-74
2023/10/03 02:28:21;;;;;;;31.27;14.27;;;;;;;18.82;100.00;100733.06;5047820;28;20056;-73
2023/10/03 02:30:50;;;;;;;29.23;13.15;;;;;;;18.78;100.00;100724.66;5057178;28;20539;-71
2023/10/03 02:33:18;;;;;;;32.50;14.10;;;;;;;18.83;100.00;100712.63;5047885;28;20163;-74
2023/10/03 02:35:46;;;;;;;33.47;15.27;;;;;;;18.94;100.00;100704.06;5065794;28;20056;-72
2023/10/03 02:38:30;;;;;;;34.78;13.35;;;;;;;19.02;100.00;100711.81;5071094;28;20094;-74
2023/10/03 02:40:58;;;;;;;33.75;14.43;;;;;;;19.12;100.00;100698.09;5068078;28;20299;-74
2023/10/03 02:43:34;;;;;;;34.63;14.23;;;;;;;19.22;100.00;100708.31;5049330;28;20555;-71
2023/10/03 02:46:04;;;;;;;38.22;14.57;;;;;;;19.24;100.00;100696.44;5043364;28;20071;-71
2023/10/03 02:48:31;;;;;;;34.85;14.90;;;;;;;19.27;100.00;100700.56;5050773;28;20037;-74
2023/10/03 02:50:58;;;;;;;34.78;14.45;;;;;;;19.30;100.00;100700.13;5047859;28;20471;-74
2023/10/03 02:53:26;;;;;;;35.25;14.75;;;;;;;19.29;100.00;100678.03;5052695;28;20468;-73
2023/10/03 02:55:52;;;;;;;36.72;15.73;;;;;;;19.31;100.00;100693.81;5029968;28;20488;-74
2023/10/03 02:58:20;;;;;;;34.80;15.05;;;;;;;19.33;100.00;100703.19;5048760;28;20687;-73
2023/10/03 03:00:56;;;;;;;30.75;13.65;;;;;;;19.35;100.00;100711.78;5050708;28;20203;-71
2023/10/03 03:03:29;;;;;;;32.00;13.35;;;;;;;19.34;100.00;100712.78;5034236;28;20114;-71
2023/10/03 03:05:58;;;;;;;35.30;14.95;;;;;;;19.33;100.00;100719.16;5043370;28;20044;-74
2023/10/03 03:08:27;;;;;;;;;;;;;;;19.34;100.00;100717.31;5042755;28;20037;-73
2023/10/03 03:10:57;;;;;;;36.38;14.30;;;;;;;19.29;100.00;100715.28;5037837;28;19928;-72
2023/10/03 03:13:26;;;;;;;31.35;13.55;;;;;;;19.27;100.00;100717.31;5045870;28;20421;-74
2023/10/03 03:15:59;;;;;;;30.38;13.35;;;;;;;19.32;100.00;100714.03;5044674;28;20394;-73
2023/10/03 03:18:31;;;;;;;33.20;13.48;;;;;;;19.34;100.00;100714.66;5046892;28;20048;-73
2023/10/03 03:20:58;;;;;;;31.95;13.20;;;;;;;19.41;100.00;100706.69;5043698;28;20053;-73
2023/10/03 03:23:35;;;;;;;28.10;12.60;;;;;;;19.46;100.00;100712.16;5054227;28;20267;-73
2023/10/03 03:28:40;;;;;;;34.33;13.55;;;;;;;19.51;100.00;100694.56;5042988;28;20068;-73
2023/10/03 03:31:25;;;;;;;28.20;12.40;;;;;;;19.52;100.00;100693.56;5035165;28;20132;-73
2023/10/03 03:33:56;;;;;;;29.25;13.10;;;;;;;19.52;100.00;100688.22;5049428;28;20048;-74
2023/10/03 03:36:29;;;;;;;31.02;13.45;;;;;;;19.52;100.00;100690.91;5033717;28;20099;-73
2023/10/03 03:39:06;;;;;;;30.73;12.80;;;;;;;19.47;100.00;100688.03;5041382;28;20048;-74
2023/10/03 03:41:34;;;;;;;28.85;13.02;;;;;;;19.43;100.00;100683.34;5049115;28;20052;-73
2023/10/03 03:44:01;;;;;;;34.30;14.00;;;;;;;19.42;100.00;100679.03;5034568;28;20470;-73
2023/10/03 03:46:29;;;;;;;33.67;12.98;;;;;;;19.40;100.00;100686.41;5046848;28;20072;-73
2023/10/03 03:48:58;;;;;;;;;;;;;;;19.44;100.00;100682.31;5044664;28;20048;-74
2023/10/03 03:51:25;;;;;;;34.50;13.30;;;;;;;19.42;100.00;100682.50;5041526;28;20346;-74
2023/10/03 03:53:51;;;;;;;30.60;12.40;;;;;;;19.39;100.00;100685.59;5036140;28;20049;-73
2023/10/03 03:56:18;;;;;;;29.90;12.50;;;;;;;19.42;100.00;100679.03;5047073;28;20049;-73
2023/10/03 03:58:45;;;;;;;27.33;11.68;;;;;;;19.42;100.00;100671.88;5056149;28;20044;-73
2023/10/03 04:01:17;;;;;;;31.02;11.93;;;;;;;19.46;100.00;100669.63;5048561;28;20071;-73
2023/10/03 04:03:45;;;;;;;30.58;12.27;;;;;;;19.47;100.00;100673.94;5047050;28;20187;-73
2023/10/03 04:06:12;;;;;;;;;;;;;;;19.56;100.00;100675.31;5042156;28;20420;-73
2023/10/03 04:08:39;;;;;;;29.17;12.48;;;;;;;19.49;100.00;100678.00;5045644;28;20463;-73
2023/10/03 04:11:25;;;;;;;31.52;11.52;;;;;;;19.51;100.00;100685.78;5048094;28;20052;-73
2023/10/03 04:13:55;;;;;;;27.98;10.60;;;;;;;19.53;100.00;100686.38;5046250;28;20049;-73
2023/10/03 04:16:27;;;;;;;24.45;10.38;;;;;;;19.55;100.00;100694.97;5051406;28;20493;-74
2023/10/03 04:18:57;;;;;;;24.02;9.65;;;;;;;19.57;100.00;100692.91;5035901;28;20281;-74
2023/10/03 04:21:27;;;;;;;26.38;10.45;;;;;;;19.57;100.00;100698.25;5050981;28;20598;-74
2023/10/03 04:23:55;;;;;;;27.23;11.57;;;;;;;19.57;100.00;100692.91;5043105;28;20138;-73
2023/10/03 04:26:23;;;;;;;30.10;11.63;;;;;;;19.56;100.00;100700.09;5057083;28;20148;-74
2023/10/03 04:28:50;;;;;;;27.75;11.00;;;;;;;19.54;100.00;100702.16;5047204;28;20115;-73
2023/10/03 04:31:16;;;;;;;27.83;10.10;;;;;;;19.58;100.00;100712.34;5043091;28;20179;-73
2023/10/03 04:33:45;;;;;;;25.50;10.88;;;;;;;19.53;100.00;100718.31;5045431;28;20055;-73
2023/10/03 04:36:14;;;;;;;24.00;10.52;;;;;;;19.50;100.00;100722.22;5044906;28;20057;-73
2023/10/03 04:38:42;;;;;;;27.88;10.27;;;;;;;19.51;100.00;100721.16;5050329;28;20037;-73
2023/10/03 04:41:09;;;;;;;24.77;9.88;;;;;;;19.48;100.00;100716.28;5041597;28;20157;-75
2023/10/03 04:43:36;;;;;;;24.05;10.15;;;;;;;19.49;100.00;100731.19;5057318;28;20075;-73
2023/10/03 04:46:04;;;;;;;23.23;9.25;;;;;;;19.51;100.00;100736.31;5039850;28;20393;-73
2023/10/03 04:48:31;;;;;;;25.50;10.48;;;;;;;19.47;100.00;100725.28;5050623;28;20052;-73
2023/10/03 04:50:59;;;;;;;21.77;8.73;;;;;;;19.50;100.00;100740.84;5049594;28;20629;-73
2023/10/03 04:53:26;;;;;;;20.00;8.02;;;;;;;19.48;100.00;100750.03;5040589;28;20045;-73
2023/10/03 04:55:53;;;;;;;19.90;7.00;;;;;;;19.47;100.00;100727.13;5054095;28;20136;-73
2023/10/03 04:58:21;;;;;;;17.63;7.03;;;;;;;19.48;100.00;100750.88;5046211;28;20056;-73
2023/10/03 05:00:48;;;;;;;16.17;6.93;;;;;;;19.42;100.00;100742.88;5045676;28;20059;-74
2023/10/03 05:03:17;;;;;;;17.95;6.95;;;;;;;19.48;100.00;100728.75;5043138;28;20044;-73
2023/10/03 05:05:45;;;;;;;20.27;6.72;;;;;;;19.42;100.00;100743.69;5053443;28;20125;-73
2023/10/03 05:08:11;;;;;;;12.05;5.57;;;;;;;19.30;100.00;100753.31;5054513;28;20178;-73
2023/10/03 05:10:38;;;;;;;15.27;5.53;;;;;;;19.28;100.00;100750.03;5045779;28;20080;-74
2023/10/03 05:13:05;;;;;;;16.83;5.85;;;;;;;19.22;100.00;100746.38;5058079;28;20122;-74
2023/10/03 05:15:32;;;;;;;12.18;4.88;;;;;;;19.20;100.00;100758.25;5037353;28;20366;-73
2023/10/03 05:18:00;;;;;;;12.32;4.57;;;;;;;19.14;100.00;100757.22;5056078;28;20041;-74
2023/10/03 05:20:37;;;;;;;;;;;;;;;19.13;100.00;100768.84;5044545;28;20079;-73
2023/10/03 05:23:05;;;;;;;12.05;4.25;;;;;;;19.09;100.00;100759.66;5056185;28;19928;-73
2023/10/03 05:25:42;;;;;;;11.63;5.20;;;;;;;19.01;100.00;100742.06;5051917;28;20141;-74
2023/10/03 05:28:12;;;;;;;13.50;5.22;;;;;;;18.93;100.00;100744.91;5041348;28;20485;-74
2023/10/03 05:30:38;;;;;;;13.88;5.07;;;;;;;18.86;100.00;100736.16;5054342;28;20048;-73
2023/10/03 05:33:06;;;;;;;11.60;5.38;;;;;;;18.82;100.00;100761.47;5045935;28;20087;-73
2023/10/03 05:35:34;;;;;;;9.60;4.65;;;;;;;18.86;100.00;100778.66;5056237;28;20048;-73
2023/10/03 05:38:06;;;;;;;10.85;5.00;;;;;;;18.74;100.00;100789.84;5043470;28;20261;-73
2023/10/03 05:40:33;;;;;;;12.05;4.43;;;;;;;18.73;100.00;100798.81;5052560;28;20059;-73
2023/10/03 05:43:01;;;;;;;8.77;4.30;;;;;;;18.77;100.00;100794.75;5041255;28;20138;-75
2023/10/03 05:45:27;;;;;;;11.63;4.40;;;;;;;18.80;100.00;100782.09;5042531;28;20531;-73
2023/10/03 05:47:55;;;;;;;10.07;4.43;;;;;;;18.77;100.00;100792.09;5046305;28;20075;-74
2023/10/03 05:50:23;;;;;;;7.97;4.25;;;;;;;18.75;100.00;100785.34;5047739;28;20083;-73
2023/10/03 05:52:51;;;;;;;9.45;4.32;;;;;;;18.74;100.00;100794.34;5052809;28;20050;-73
2023/10/03 05:55:17;;;;;;;10.15;4.45;;;;;;;18.76;100.00;100802.94;5047995;28;20837;-73
2023/10/03 05:57:44;;;;;;;9.77;4.35;;;;;;;18.76;100.00;100802.94;5048723;28;20141;-73
2023/10/03 06:00:16;;;;;;;11.20;4.75;;;;;;;18.74;100.00;100804.97;5049462;28;20398;-74
2023/10/03 06:02:50;;;;;;;9.48;4.07;;;;;;;18.81;100.00;100813.78;5036714;28;20056;-73
2023/10/03 06:05:17;;;;;;;15.63;4.72;;;;;;;18.78;100.00;100822.16;5048600;28;20053;-73
2023/10/03 06:07:44;;;;;;;9.15;4.28;;;;;;;18.76;100.00;100800.28;5047524;28;20087;-74
2023/10/03 06:10:15;;;;;;;12.80;5.45;;;;;;;18.76;100.00;100806.41;5045146;28;20057;-74
2023/10/03 06:12:43;;;;;;;12.02;4.93;;;;;;;18.73;100.00;100820.09;5044141;28;20045;-73
2023/10/03 06:15:12;;;;;;;9.07;4.57;;;;;;;18.71;100.00;100818.66;5045803;28;20064;-73
2023/10/03 06:17:40;;;;;;;10.40;4.43;;;;;;;18.68;100.00;100825.19;5051233;28;20060;-73
2023/10/03 06:20:10;;;;;;;14.67;5.43;;;;;;;18.63;100.00;100829.47;5041658;28;20115;-73
2023/10/03 06:22:38;;;;;;;12.63;5.40;;;;;;;18.64;100.00;100826.63;5041837;28;20745;-74
2023/10/03 06:25:05;;;;;;;13.23;5.07;;;;;;;18.65;100.00;100816.78;5046022;28;20048;-74
2023/10/03 06:27:32;;;;;;;13.17;5.40;;;;;;;18.62;100.00;100815.38;5053115;28;20394;-74
2023/10/03 06:29:58;;;;;;;12.57;4.97;;;;;;;18.57;100.00;100842.50;5041926;28;20286;-73
2023/10/03 06:32:25;;;;;;;8.07;4.18;;;;;;;18.63;100.00;100835.59;5043603;28;20045;-73
2023/10/03 06:34:52;;;;;;;11.43;4.75;;;;;;;18.63;100.00;100842.75;5047891;28;20462;-72
2023/10/03 06:37:19;;;;;;;14.65;5.57;;;;;;;18.65;100.00;100838.88;5038786;28;20057;-72
2023/10/03 06:39:47;;;;;;;9.60;4.68;;;;;;;18.70;100.00;100823.16;5044602;28;20045;-72
2023/10/03 06:42:13;;;;;;;17.13;5.57;;;;;;;18.71;100.00;100827.44;5045869;28;20147;-72
2023/10/03 06:44:42;;;;;;;9.63;5.00;;;;;;;18.80;100.00;100825.47;5051137;28;20072;-72
2023/10/03 06:47:10;;;;;;;11.27;4.88;;;;;;;18.76;100.00;100827.66;5036604;28;20084;-72
2023/10/03 06:49:37;;;;;;;11.57;4.90;;;;;;;18.74;100.00;100827.03;5040877;28;20114;-72
2023/10/03 06:52:03;;;;;;;10.25;5.00;;;;;;;18.76;100.00;100853.44;5046028;28;20052;-72
2023/10/03 06:54:30;;;;;;;10.40;4.55;;;;;;;18.76;100.00;100854.25;5041736;28;20053;-72
2023/10/03 06:56:57;;;;;;;13.48;4.80;;;;;;;18.81;100.00;100863.47;5054598;28;20052;-71
2023/10/03 06:59:24;;;;;;;11.02;4.80;;;;;;;18.68;100.00;100859.72;5041733;28;20052;-71
2023/10/03 07:01:51;;;;;;;9.25;5.03;;;;;;;18.77;100.00;100863.03;5045443;28;20139;-71
2023/10/03 07:04:18;;;;;;;11.77;5.32;;;;;;;18.75;100.00;100865.88;5044041;28;20361;-72
2023/10/03 07:06:45;;;;;;;11.35;4.78;;;;;;;18.74;100.00;100871.41;5039806;28;20049;-72
2023/10/03 07:09:13;;;;;;;11.13;4.72;;;;;;;18.87;100.00;100879.44;5042722;28;20049;-71
2023/10/03 07:11:40;;;;;;;9.80;4.85;;;;;;;18.95;100.00;100863.31;5038960;28;20092;-71
2023/10/03 07:14:12;;;;;;;10.45;4.90;;;;;;;18.99;100.00;100874.34;5049697;28;20049;-72
2023/10/03 07:16:39;;;;;;;12.63;5.38;;;;;;;19.04;100.00;100877.25;5032044;28;20106;-72
2023/10/03 07:19:09;;;;;;;8.27;4.70;;;;;;;19.05;100.00;100905.47;5048694;28;20041;-72
2023/10/03 07:21:36;;;;;;;8.85;4.47;;;;;;;19.07;100.00;100882.16;5047310;28;20049;-71
2023/10/03 07:24:03;;;;;;;9.55;4.68;;;;;;;19.07;100.00;100892.81;5034814;28;20068;-72
2023/10/03 07:26:31;;;;;;;12.05;5.70;;;;;;;19.10;100.00;100891.56;5044484;28;20048;-72
2023/10/03 07:29:02;;;;;;;;;;;;;;;19.08;100.00;100896.28;5047292;28;20052;-72
2023/10/03 07:31:33;;;;;;;10.27;5.50;;;;;;;19.07;100.00;100895.47;5049408;28;19925;-72
2023/10/03 07:34:00;;;;;;;14.45;5.70;;;;;;;18.98;100.00;100887.88;5044754;28;20053;-73
2023/10/03 07:36:27;;;;;;;11.68;5.95;;;;;;;18.99;100.00;100892.16;5056808;28;20080;-71
2023/10/03 07:38:54;;;;;;;14.32;6.40;;;;;;;18.99;100.00;100910.75;5052250;28;20559;-71
2023/10/03 07:41:21;;;;;;;14.15;5.45;;;;;;;18.98;100.00;100898.50;5046220;28;20040;-71
2023/10/03 07:43:48;;;;;;;12.68;5.25;;;;;;;18.93;100.00;100891.94;5041347;28;20481;-72
2023/10/03 07:46:22;;;;;;;8.50;4.93;;;;;;;18.92;100.00;100897.47;5036884;28;20045;-71
2023/10/03 07:48:53;;;;;;;12.23;4.53;;;;;;;18.82;100.00;100919.09;5058739;28;20048;-72
2023/10/03 07:51:26;;;;;;;10.93;5.25;;;;;;;18.82;100.00;100908.47;5046789;28;20063;-73
2023/10/03 07:53:55;;;;;;;10.07;4.47;;;;;;;18.75;100.00;100903.06;5055105;28;20489;-73
2023/10/03 07:56:30;;;;;;;10.07;5.43;;;;;;;18.70;100.00;100918.81;5056443;28;20386;-72
2023/10/03 07:59:02;;;;;;;12.02;4.78;;;;;;;18.62;100.00;100926.94;5032762;28;20099;-72
2023/10/03 08:01:32;;;;;;;7.82;4.05;;;;;;;18.63;100.00;100928.56;5052967;28;20052;-73
2023/10/03 08:04:20;;;;;;;11.00;4.47;;;;;;;18.53;100.00;100926.28;5041016;28;20045;-71
2023/10/03 08:06:47;;;;;;;16.02;3.97;;;;;;;18.51;100.00;100944.25;5053805;28;20056;-71
2023/10/03 08:09:14;;;;;;;7.95;3.05;;;;;;;18.45;100.00;100966.28;5039650;28;20546;-71
2023/10/03 08:11:46;;;;;;;5.97;2.78;;;;;;;18.48;100.00;100962.41;5053112;28;20497;-71
2023/10/03 08:14:13;;;;;;;6.97;3.00;;;;;;;18.47;100.00;100958.94;5049966;28;20080;-70
2023/10/03 08:16:41;;;;;;;6.77;3.00;;;;;;;18.48;100.00;101005.72;5050990;28;20052;-72
2023/10/03 08:19:21;;;;;;;6.63;2.55;;;;;;;18.53;100.00;100991.88;5048952;28;20053;-70
2023/10/03 08:21:48;;;;;;;7.38;2.58;;;;;;;18.54;100.00;100981.06;5043359;28;20506;-72
2023/10/03 08:24:19;;;;;;;9.80;2.60;;;;;;;18.51;100.00;100978.78;5050205;28;20574;-72
2023/10/03 08:26:50;;;;;;;9.82;2.90;;;;;;;18.57;100.00;100987.81;5039592;28;20071;-72
2023/10/03 08:29:21;;;;;;;8.20;2.53;;;;;;;18.65;100.00;100998.28;5049013;28;20504;-72
2023/10/03 08:31:59;;;;;;;9.73;2.33;;;;;;;18.66;100.00;101007.91;5044004;28;20056;-72
2023/10/03 08:34:27;;;;;;;5.00;1.92;;;;;;;18.60;100.00;101013.16;5049384;28;20456;-72
2023/10/03 08:36:54;;;;;;;5.53;1.70;;;;;;;18.60;100.00;101015.81;5052759;28;20493;-72
2023/10/03 08:39:23;;;;;;;6.53;1.70;;;;;;;18.54;100.00;101018.25;5037578;28;20041;-72
2023/10/03 08:42:09;;;;;;;12.95;2.38;;;;;;;18.51;100.00;101020.47;5049006;28;20048;-72
2023/10/03 08:44:41;;;;;;;6.20;1.95;;;;;;;18.30;100.00;101032.75;5045262;28;20057;-72
2023/10/03 08:47:11;;;;;;;7.90;1.90;;;;;;;18.40;100.00;101039.56;5052030;28;20303;-72
2023/10/03 08:49:40;;;;;;;4.20;1.65;;;;;;;18.36;100.00;101050.56;5045719;28;20061;-73
2023/10/03 08:52:09;;;;;;;5.47;1.90;;;;;;;18.23;100.00;101046.97;5048620;28;20080;-73
2023/10/03 08:54:37;;;;;;;8.50;2.22;;;;;;;18.17;100.00;101067.19;5049795;28;20196;-72
2023/10/03 08:57:04;;;;;;;7.57;1.92;;;;;;;18.06;100.00;101075.66;5048631;28;20497;-72
2023/10/03 08:59:32;;;;;;;9.00;2.00;;;;;;;17.75;100.00;101077.53;5052302;28;20376;-72
2023/10/03 09:02:09;;;;;;;6.07;1.65;;;;;;;17.57;100.00;101093.84;5045811;28;20079;-73
2023/10/03 09:04:38;;;;;;;3.70;1.33;;;;;;;17.51;100.00;101080.53;5052077;28;20148;-73
2023/10/03 09:07:11;;;;;;;5.55;1.50;;;;;;;17.48;100.00;101092.31;5043779;28;20289;-73
2023/10/03 09:09:43;;;;;;;4.15;1.55;;;;;;;17.48;100.00;101094.97;5045852;28;20060;-72
2023/10/03 09:12:12;;;;;;;4.15;1.73;;;;;;;17.45;100.00;101111.25;5050350;28;20941;-73
2023/10/03 09:14:39;;;;;;;6.53;1.50;;;;;;;17.52;100.00;101121.94;5049346;28;20152;-73
2023/10/03 09:17:06;;;;;;;4.55;1.58;;;;;;;17.63;100.00;101120.66;5050564;28;20531;-73
2023/10/03 09:19:44;;;;;;;3.97;1.60;;;;;;;17.68;100.00;101128.88;5042719;28;20037;-72
2023/10/03 09:22:15;;;;;;;4.35;1.60;;;;;;;-145.50;100.00;65435.88;5048573;28;20143;-73
2023/10/03 09:24:46;;;;;;;3.38;1.40;;;;;;;-145.50;100.00;65435.88;5050237;28;20122;-73
2023/10/03 09:27:17;;;;;;;6.25;1.52;;;;;;;-145.50;100.00;65435.88;5049567;28;20053;-72
2023/10/03 09:29:45;;;;;;;5.97;1.40;;;;;;;-145.50;100.00;65435.88;5044890;28;20047;-73
2023/10/03 09:32:16;;;;;;;5.32;1.58;;;;;;;-145.50;100.00;65435.88;5049540;28;20506;-73
2023/10/03 09:34:46;;;;;;;4.97;1.40;;;;;;;-145.50;100.00;65435.88;5046526;28;20044;-73
2023/10/03 09:37:13;;;;;;;4.93;1.33;;;;;;;-145.50;100.00;65435.88;5044084;28;20492;-73
2023/10/03 09:39:47;;;;;;;4.28;1.00;;;;;;;-145.50;100.00;65435.88;5048937;28;20051;-73
2023/10/03 09:42:16;;;;;;;5.20;1.30;;;;;;;-145.50;100.00;65435.88;5043945;28;20135;-73
2023/10/03 09:44:44;;;;;;;4.47;1.20;;;;;;;-145.50;100.00;65435.88;5049552;28;20056;-73
2023/10/03 09:47:13;;;;;;;6.60;1.10;;;;;;;-145.50;100.00;65435.88;5033082;28;20143;-73
2023/10/03 09:49:40;;;;;;;3.97;1.10;;;;;;;-145.50;100.00;65435.88;5049166;28;20050;-72
2023/10/03 09:52:24;;;;;;;4.10;1.10;;;;;;;-145.50;100.00;65435.88;5057648;28;20059;-73
2023/10/03 09:54:59;;;;;;;6.18;0.98;;;;;;;-145.50;100.00;65435.88;5042201;28;20060;-72
2023/10/03 09:57:29;;;;;;;5.55;1.00;;;;;;;-145.50;100.00;65435.88;5043882;28;20164;-72
2023/10/03 09:59:57;;;;;;;4.60;0.95;;;;;;;-145.50;100.00;65435.88;5048490;28;20496;-73
2023/10/03 10:03:28;;;;;;;3.03;0.90;;;;;;;-145.50;100.00;65435.88;5045094;28;20063;-72
2023/10/03 10:07:27;;;;;;;4.65;1.08;;;;;;;-145.50;100.00;65435.88;5038601;28;20059;-72
2023/10/03 10:11:07;;;;;;;3.30;0.80;;;;;;;-145.50;100.00;65435.88;5050527;28;20049;-72
2023/10/03 10:14:53;;;;;;;3.10;0.80;;;;;;;-145.50;100.00;65435.88;5049872;28;20052;-71
2023/10/03 10:18:39;;;;;;;6.78;1.10;;;;;;;-145.50;100.00;65435.88;5035511;28;20056;-72
2023/10/03 10:22:20;;;;;;;4.38;1.05;;;;;;;-145.50;100.00;65435.88;5055022;28;20249;-71
2023/10/03 10:26:25;;;;;;;4.80;1.35;;;;;;;-145.50;100.00;65435.88;5049157;28;20098;-72
2023/10/03 10:29:57;;;;;;;4.53;0.85;;;;;;;-145.50;100.00;65435.88;5041458;28;20356;-72
2023/10/03 10:33:22;;;;;;;4.10;1.00;;;;;;;-145.50;100.00;65435.88;5054468;28;20745;-71
2023/10/03 10:37:02;;;;;;;4.75;1.10;;;;;;;-145.50;100.00;65435.88;5050631;28;20041;-72
2023/10/03 10:41:02;;;;;;;4.10;0.93;;;;;;;-145.50;100.00;65435.88;5046515;28;20048;-71
2023/10/03 10:44:31;;;;;;;2.88;1.05;;;;;;;-145.50;100.00;65435.88;5045689;28;20162;-72
2023/10/03 10:48:05;;;;;;;2.65;0.95;;;;;;;-145.50;100.00;65435.88;5049391;28;20449;-72
2023/10/03 10:51:54;;;;;;;3.28;1.17;;;;;;;-145.50;100.00;65435.88;5051227;28;20133;-72
2023/10/03 10:55:23;;;;;;;5.82;0.93;;;;;;;-145.50;100.00;65435.88;5050640;28;20045;-72
2023/10/03 10:58:17;;;;;;;4.95;1.23;;;;;;;-145.50;100.00;65435.88;5038676;28;20261;-72
2023/10/03 11:01:44;;;;;;;4.47;1.15;;;;;;;-145.50;100.00;65435.88;5056311;28;20553;-72
2023/10/03 11:05:48;;;;;;;5.47;1.35;;;;;;;-145.50;100.00;65435.88;5042431;28;20064;-71
2023/10/03 11:09:20;;;;;;;2.83;0.90;;;;;;;-145.50;100.00;65435.88;5040732;28;20056;-71
2023/10/03 11:12:56;;;;;;;1.92;0.70;;;;;;;-145.50;100.00;65435.88;5038879;28;20052;-72
2023/10/03 11:16:22;;;;;;;2.72;1.00;;;;;;;-145.50;100.00;65435.88;5046290;28;20049;-72
2023/10/03 11:19:49;;;;;;;2.72;0.80;;;;;;;-145.50;100.00;65435.88;5057551;28;20055;-72
2023/10/03 11:23:18;;;;;;;5.55;1.30;;;;;;;-145.50;100.00;65435.88;5054003;28;20095;-72
2023/10/03 11:26:54;;;;;;;3.47;1.65;;;;;;;-145.50;100.00;65435.88;5036663;28;20048;-73
2023/10/03 11:30:38;;;;;;;3.38;1.10;;;;;;;-145.50;100.00;65435.88;5053622;28;20118;-71
2023/10/03 11:34:00;;;;;;;3.00;1.00;;;;;;;-145.50;100.00;65435.88;5040882;28;20122;-71
2023/10/03 11:36:40;;;;;;;1.75;1.00;;;;;;;17.47;100.00;101345.28;5045177;28;20392;-72
2023/10/03 11:39:07;;;;;;;3.67;0.90;;;;;;;17.34;100.00;101350.34;5048859;28;20084;-72
2023/10/03 11:41:34;;;;;;;5.55;1.20;;;;;;;17.35;100.00;101357.31;5047585;28;20416;-71
2023/10/03 11:44:01;;;;;;;4.88;1.00;;;;;;;17.31;100.00;101345.41;5047907;28;20056;-71
2023/10/03 11:47:33;;;;;;;3.27;1.13;;;;;;;-145.50;100.00;65435.88;5050777;28;20132;-72
2023/10/03 11:51:00;;;;;;;7.00;1.42;;;;;;;-145.50;100.00;65435.88;5041074;28;20647;-71
2023/10/03 11:54:25;;;;;;;3.28;1.00;;;;;;;-145.50;100.00;65435.88;5046901;28;20059;-71
2023/10/03 11:57:50;;;;;;;6.00;1.30;;;;;;;-145.50;100.00;65435.88;5049724;28;20068;-72